SAS3EW ESSA-EKCH
Flight info
| Callsign | SAS3EW |
|---|---|
| Flight time | N/A |
| Altitude | 38000 |
| Route | PETEV N872 ELPAX DCT TOKSI N872 ERNOV |
| Aircraft | A320/M-SDE3FGHIRWY/LB1 |
Departure
| Time | 2026-05-06 18:02 |
|---|---|
| Airport | Stockholm-Arlanda Airport (ESSA) |
Arrival
| Time | N/A |
|---|---|
| Airport | Copenhagen Kastrup Airport (EKCH) |
| Time | Latitude | Longitude | Altitude | Speed | Heading |
|---|---|---|---|---|---|
| 2026-05-06 17:09 | 59.65397 | 17.93534 | 138 ft | 0 kts | 75° |
| 2026-05-06 17:19 | 59.65344 | 17.93799 | 138 ft | 0 kts | 255° |
| 2026-05-06 17:46 | 59.65346 | 17.93819 | 138 ft | 4 kts | 255° |
| 2026-05-06 17:46 | 59.65353 | 17.93871 | 138 ft | 4 kts | 255° |
| 2026-05-06 17:46 | 59.65360 | 17.93923 | 138 ft | 4 kts | 255° |
| 2026-05-06 17:46 | 59.65366 | 17.93969 | 138 ft | 1 kts | 255° |
| 2026-05-06 17:47 | 59.65367 | 17.93971 | 138 ft | 0 kts | 255° |
| 2026-05-06 17:50 | 59.65368 | 17.93964 | 138 ft | 1 kts | 285° |
| 2026-05-06 17:50 | 59.65388 | 17.93941 | 138 ft | 6 kts | 344° |
| 2026-05-06 17:51 | 59.65446 | 17.93921 | 138 ft | 11 kts | 351° |
| 2026-05-06 17:51 | 59.65539 | 17.93882 | 138 ft | 16 kts | 346° |
| 2026-05-06 17:51 | 59.65583 | 17.93704 | 138 ft | 19 kts | 256° |
| 2026-05-06 17:51 | 59.65546 | 17.93427 | 138 ft | 22 kts | 255° |
| 2026-05-06 17:52 | 59.65508 | 17.93134 | 138 ft | 16 kts | 256° |
| 2026-05-06 17:52 | 59.65495 | 17.93004 | 138 ft | 12 kts | 251° |
| 2026-05-06 17:52 | 59.65458 | 17.92821 | 138 ft | 17 kts | 246° |
| 2026-05-06 17:52 | 59.65439 | 17.92627 | 138 ft | 14 kts | 306° |
| 2026-05-06 17:53 | 59.65538 | 17.92528 | 138 ft | 18 kts | 342° |
| 2026-05-06 17:53 | 59.65673 | 17.92458 | 138 ft | 22 kts | 345° |
| 2026-05-06 17:53 | 59.65825 | 17.92444 | 138 ft | 24 kts | 9° |
| 2026-05-06 17:53 | 59.65999 | 17.92508 | 138 ft | 28 kts | 10° |
| 2026-05-06 17:54 | 59.66185 | 17.92577 | 138 ft | 27 kts | 11° |
| 2026-05-06 17:54 | 59.66362 | 17.92640 | 138 ft | 21 kts | 10° |
| 2026-05-06 17:54 | 59.66444 | 17.92659 | 138 ft | 9 kts | 356° |
| 2026-05-06 17:54 | 59.66446 | 17.92659 | 138 ft | 0 kts | 356° |
| 2026-05-06 17:55 | 59.66448 | 17.92659 | 138 ft | 0 kts | 355° |
| 2026-05-06 17:55 | 59.66470 | 17.92650 | 138 ft | 6 kts | 347° |
| 2026-05-06 17:56 | 59.66526 | 17.92613 | 138 ft | 11 kts | 340° |
| 2026-05-06 17:56 | 59.66552 | 17.92595 | 139 ft | 0 kts | 340° |
| 2026-05-06 17:58 | 59.66561 | 17.92588 | 111 ft | 4 kts | 340° |
| 2026-05-06 17:59 | 59.66601 | 17.92553 | 139 ft | 8 kts | 324° |
| 2026-05-06 17:59 | 59.66615 | 17.92442 | 141 ft | 9 kts | 258° |
| 2026-05-06 17:59 | 59.66560 | 17.92349 | 142 ft | 10 kts | 193° |
| 2026-05-06 17:59 | 59.66557 | 17.92348 | 142 ft | 0 kts | 192° |
| 2026-05-06 18:01 | 59.66497 | 17.92327 | 142 ft | 42 kts | 191° |
| 2026-05-06 18:01 | 59.65918 | 17.92119 | 145 ft | 122 kts | 191° |
| 2026-05-06 18:02 | 59.64938 | 17.91752 | 543 ft | 149 kts | 189° |
| 2026-05-06 18:02 | 59.63860 | 17.91367 | 1244 ft | 169 kts | 189° |
| 2026-05-06 18:02 | 59.62634 | 17.90954 | 1994 ft | 187 kts | 188° |
| 2026-05-06 18:02 | 59.61291 | 17.90567 | 2890 ft | 202 kts | 187° |
| 2026-05-06 18:03 | 59.59849 | 17.90266 | 3880 ft | 214 kts | 184° |
| 2026-05-06 18:03 | 59.58318 | 17.90126 | 4858 ft | 224 kts | 195° |
| 2026-05-06 18:03 | 59.57120 | 17.88562 | 6311 ft | 200 kts | 238° |
| 2026-05-06 18:03 | 59.56649 | 17.86156 | 7537 ft | 189 kts | 257° |
| 2026-05-06 18:04 | 59.56434 | 17.83490 | 8277 ft | 203 kts | 268° |
| 2026-05-06 18:04 | 59.56441 | 17.80619 | 9148 ft | 216 kts | 272° |
| 2026-05-06 18:04 | 59.56461 | 17.77624 | 10197 ft | 222 kts | 268° |
| 2026-05-06 18:04 | 59.56163 | 17.74517 | 10920 ft | 242 kts | 249° |
| 2026-05-06 18:05 | 59.55226 | 17.71574 | 11553 ft | 265 kts | 234° |
| 2026-05-06 18:05 | 59.53919 | 17.68841 | 12185 ft | 286 kts | 226° |
| 2026-05-06 18:05 | 59.52484 | 17.65894 | 12709 ft | 307 kts | 229° |
| 2026-05-06 18:05 | 59.51032 | 17.62735 | 13579 ft | 315 kts | 230° |
| 2026-05-06 18:06 | 59.49553 | 17.59519 | 14494 ft | 319 kts | 229° |
| 2026-05-06 18:06 | 59.48044 | 17.56298 | 15417 ft | 321 kts | 229° |
| 2026-05-06 18:06 | 59.46508 | 17.53087 | 16335 ft | 324 kts | 229° |
| 2026-05-06 18:06 | 59.44944 | 17.49867 | 17259 ft | 327 kts | 228° |
| 2026-05-06 18:07 | 59.43361 | 17.46636 | 18187 ft | 329 kts | 228° |
| 2026-05-06 18:07 | 59.41759 | 17.43392 | 19000 ft | 332 kts | 228° |
| 2026-05-06 18:07 | 59.40144 | 17.40135 | 19866 ft | 334 kts | 228° |
| 2026-05-06 18:07 | 59.38521 | 17.36865 | 20750 ft | 335 kts | 229° |
| 2026-05-06 18:08 | 59.36891 | 17.33585 | 21613 ft | 336 kts | 229° |
| 2026-05-06 18:08 | 59.35253 | 17.30287 | 22473 ft | 338 kts | 229° |
| 2026-05-06 18:08 | 59.33604 | 17.26974 | 23303 ft | 340 kts | 229° |
| 2026-05-06 18:08 | 59.31947 | 17.23654 | 24038 ft | 342 kts | 229° |
| 2026-05-06 18:09 | 59.30277 | 17.20309 | 24662 ft | 345 kts | 228° |
| 2026-05-06 18:09 | 59.28595 | 17.16939 | 25318 ft | 347 kts | 228° |
| 2026-05-06 18:09 | 59.26905 | 17.13550 | 25984 ft | 349 kts | 228° |
| 2026-05-06 18:09 | 59.25207 | 17.10152 | 26644 ft | 350 kts | 227° |
| 2026-05-06 18:10 | 59.23498 | 17.06743 | 27283 ft | 352 kts | 227° |
| 2026-05-06 18:10 | 59.21780 | 17.03322 | 27907 ft | 354 kts | 227° |
| 2026-05-06 18:10 | 59.19989 | 17.00011 | 28510 ft | 357 kts | 222° |
| 2026-05-06 18:10 | 59.18075 | 16.96900 | 29110 ft | 358 kts | 222° |
| 2026-05-06 18:11 | 59.16153 | 16.93780 | 29710 ft | 360 kts | 221° |
| 2026-05-06 18:11 | 59.14222 | 16.90646 | 30262 ft | 362 kts | 221° |
| 2026-05-06 18:11 | 59.12278 | 16.87493 | 30753 ft | 365 kts | 221° |
| 2026-05-06 18:11 | 59.10322 | 16.84323 | 31230 ft | 368 kts | 221° |
| 2026-05-06 18:12 | 59.08345 | 16.81125 | 31757 ft | 370 kts | 222° |
| 2026-05-06 18:12 | 59.06356 | 16.77911 | 32207 ft | 373 kts | 221° |
| 2026-05-06 18:12 | 59.04364 | 16.74698 | 32833 ft | 372 kts | 221° |
| 2026-05-06 18:12 | 59.02378 | 16.71495 | 33483 ft | 370 kts | 221° |
| 2026-05-06 18:13 | 59.00396 | 16.68307 | 34123 ft | 369 kts | 221° |
| 2026-05-06 18:13 | 58.98419 | 16.65130 | 34604 ft | 370 kts | 221° |
| 2026-05-06 18:13 | 58.96425 | 16.61932 | 35005 ft | 373 kts | 221° |
| 2026-05-06 18:13 | 58.94418 | 16.58719 | 35388 ft | 376 kts | 221° |
| 2026-05-06 18:14 | 58.92395 | 16.55489 | 35765 ft | 379 kts | 221° |
| 2026-05-06 18:14 | 58.90353 | 16.52232 | 36138 ft | 382 kts | 221° |
| 2026-05-06 18:14 | 58.88294 | 16.48954 | 36512 ft | 385 kts | 221° |
| 2026-05-06 18:14 | 58.86221 | 16.45660 | 36881 ft | 387 kts | 221° |
| 2026-05-06 18:15 | 58.84158 | 16.42386 | 37240 ft | 390 kts | 221° |
| 2026-05-06 18:15 | 58.82055 | 16.39051 | 37570 ft | 393 kts | 221° |
| 2026-05-06 18:15 | 58.79938 | 16.35698 | 37912 ft | 396 kts | 221° |
| 2026-05-06 18:15 | 58.77804 | 16.32323 | 37992 ft | 396 kts | 221° |
| 2026-05-06 18:16 | 58.73536 | 16.25609 | 37997 ft | 396 kts | 221° |
| 2026-05-06 18:16 | 58.69271 | 16.18904 | 37999 ft | 396 kts | 221° |
| 2026-05-06 18:17 | 58.65006 | 16.12213 | 38003 ft | 396 kts | 221° |
| 2026-05-06 18:17 | 58.60730 | 16.05544 | 38000 ft | 396 kts | 221° |
| 2026-05-06 18:18 | 58.56453 | 15.98902 | 37981 ft | 396 kts | 221° |
| 2026-05-06 18:18 | 58.52160 | 15.92246 | 37965 ft | 396 kts | 221° |
| 2026-05-06 18:19 | 58.47866 | 15.85617 | 37971 ft | 397 kts | 221° |
| 2026-05-06 18:19 | 58.43566 | 15.79003 | 37974 ft | 397 kts | 221° |
| 2026-05-06 18:20 | 58.39262 | 15.72397 | 37979 ft | 397 kts | 221° |
| 2026-05-06 18:20 | 58.34976 | 15.65823 | 37975 ft | 398 kts | 221° |
| 2026-05-06 18:21 | 58.30659 | 15.59234 | 37979 ft | 398 kts | 220° |
| 2026-05-06 18:21 | 58.26326 | 15.52636 | 37984 ft | 399 kts | 220° |
| 2026-05-06 18:22 | 58.21988 | 15.46063 | 37983 ft | 399 kts | 220° |
| 2026-05-06 18:22 | 58.17638 | 15.39506 | 37987 ft | 400 kts | 220° |
| 2026-05-06 18:23 | 58.13288 | 15.32954 | 37986 ft | 400 kts | 220° |
| 2026-05-06 18:23 | 58.08932 | 15.26407 | 37982 ft | 400 kts | 220° |
| 2026-05-06 18:24 | 58.04568 | 15.19876 | 37977 ft | 400 kts | 220° |
| 2026-05-06 18:24 | 58.00206 | 15.13366 | 37980 ft | 400 kts | 220° |
| 2026-05-06 18:25 | 57.95867 | 15.06909 | 37986 ft | 399 kts | 220° |
| 2026-05-06 18:25 | 57.91506 | 15.00446 | 37978 ft | 399 kts | 220° |
| 2026-05-06 18:26 | 57.87139 | 14.94005 | 37973 ft | 399 kts | 220° |
| 2026-05-06 18:26 | 57.82744 | 14.87528 | 37973 ft | 399 kts | 220° |
| 2026-05-06 18:27 | 57.78402 | 14.81155 | 37978 ft | 399 kts | 220° |
| 2026-05-06 18:27 | 57.74027 | 14.74759 | 37972 ft | 399 kts | 220° |
| 2026-05-06 18:28 | 57.69640 | 14.68363 | 37965 ft | 399 kts | 220° |
| 2026-05-06 18:28 | 57.65258 | 14.61983 | 37997 ft | 399 kts | 220° |
| 2026-05-06 18:29 | 57.60869 | 14.55629 | 37953 ft | 399 kts | 220° |
| 2026-05-06 18:29 | 57.56471 | 14.49286 | 37965 ft | 400 kts | 220° |
| 2026-05-06 18:30 | 57.52117 | 14.43025 | 37955 ft | 383 kts | 220° |
| 2026-05-06 18:30 | 57.50040 | 14.40047 | 37953 ft | 371 kts | 220° |
| 2026-05-06 18:30 | 57.48028 | 14.37161 | 37952 ft | 359 kts | 220° |
| 2026-05-06 18:31 | 57.46086 | 14.34376 | 37952 ft | 347 kts | 220° |
| 2026-05-06 18:31 | 57.44202 | 14.31678 | 37951 ft | 337 kts | 220° |
| 2026-05-06 18:31 | 57.40581 | 14.26498 | 37949 ft | 324 kts | 220° |
| 2026-05-06 18:32 | 57.37012 | 14.21410 | 37945 ft | 323 kts | 220° |
| 2026-05-06 18:32 | 57.33465 | 14.16360 | 37954 ft | 323 kts | 220° |
| 2026-05-06 18:33 | 57.29893 | 14.11294 | 37949 ft | 323 kts | 220° |
| 2026-05-06 18:33 | 57.26318 | 14.06249 | 37957 ft | 323 kts | 220° |
| 2026-05-06 18:34 | 57.22740 | 14.01213 | 37966 ft | 323 kts | 220° |
| 2026-05-06 18:34 | 57.19150 | 13.96168 | 37752 ft | 327 kts | 220° |
| 2026-05-06 18:35 | 57.17332 | 13.93609 | 37287 ft | 330 kts | 220° |
| 2026-05-06 18:35 | 57.15495 | 13.91025 | 36811 ft | 333 kts | 220° |
| 2026-05-06 18:35 | 57.13644 | 13.88427 | 36321 ft | 336 kts | 219° |
| 2026-05-06 18:35 | 57.11776 | 13.85815 | 35874 ft | 338 kts | 219° |
| 2026-05-06 18:36 | 57.09897 | 13.83192 | 35427 ft | 340 kts | 219° |
| 2026-05-06 18:36 | 57.08008 | 13.80559 | 34981 ft | 341 kts | 219° |
| 2026-05-06 18:36 | 57.06114 | 13.77925 | 34541 ft | 342 kts | 219° |
| 2026-05-06 18:36 | 57.04215 | 13.75289 | 34117 ft | 342 kts | 219° |
| 2026-05-06 18:37 | 57.02317 | 13.72657 | 33634 ft | 342 kts | 219° |
| 2026-05-06 18:37 | 57.01061 | 13.70916 | 33302 ft | 341 kts | 219° |
| 2026-05-06 18:37 | 56.98553 | 13.67434 | 32642 ft | 341 kts | 219° |
| 2026-05-06 18:37 | 56.96662 | 13.64810 | 32161 ft | 341 kts | 219° |